KMCK

Mc Cook Ben Nelson Regional Airport

Mc Cook, Nebraska, USA
METAR KMCK 161353Z AUTO 24003KT 10SM CLR M05/M11 A2976 RMK AO2 SLP100 T10501106
Observed Flight Rules
Dec-16 @ 13:53 UTC (58 minutes ago) Visual Flight Rules
Wind Visibility Clouds
240° at 3 knots 10 miles
  • Clear skies
Temperatures Readings
Current -5°C / 23°F
Dewpoint -11°C / 12°F
Humidity 63%
Altimeter 29.76" Hg
Pressure 1010 hPa
Elevation 782
METAR KMCK 161353Z AUTO 24003KT 10SM CLR M05/M11 A2976 RMK AO2 SLP100 T10501106
Observed Flight Rules
Dec-16 @ 13:53 UTC
(58 minutes ago)
VFR
Wind Visibility
240° at 3 knots 10 miles
Clouds
  • Clear skies
Temperature Dewpoint
-5°C / 23°F -11°C / 12°F
Humidity Altimeter Pressure
63% 29.76" Hg 1010 hPa